| time (UTC) | temp F | wind direction | speed MPH | gust MPH | rain 1hr in | rain 24hr in | rain mn in | humidity % | barometer mb |
| 20260509222355 | 63 | 231 | 9.0 | 14.0 | 0.00 | 0.05 | 0.05 | 71 | 1007.7 |
| 20260509221850 | 63 | 249 | 8.0 | 14.0 | 0.00 | 0.05 | 0.05 | 74 | 1007.6 |
| 20260509221348 | 62 | 215 | 9.0 | 13.0 | 0.00 | 0.05 | 0.05 | 75 | 1007.7 |
| 20260509220843 | 62 | 233 | 11.0 | 16.0 | 0.00 | 0.05 | 0.05 | 74 | 1007.7 |
| 20260509220339 | 61 | 263 | 14.0 | 18.0 | 0.00 | 0.05 | 0.05 | 76 | 1007.6 |
| 20260509215834 | 62 | 242 | 11.0 | 15.0 | 0.00 | 0.05 | 0.05 | 78 | 1007.6 |
| 20260509215331 | 61 | 222 | 13.0 | 17.0 | 0.00 | 0.05 | 0.05 | 76 | 1007.8 |
| 20260509214828 | 61 | 240 | 11.0 | 16.0 | 0.00 | 0.05 | 0.05 | 78 | 1007.6 |
| 20260509214325 | 62 | 248 | 12.0 | 15.0 | 0.00 | 0.05 | 0.05 | 76 | 1007.4 |
| 20260509213823 | 62 | 225 | 9.0 | 14.0 | 0.00 | 0.05 | 0.05 | 80 | 1007.3 |
| 20260509213317 | 60 | 226 | 14.0 | 17.0 | 0.00 | 0.05 | 0.05 | 76 | 1007.4 |
| 20260509212816 | 60 | 229 | 11.0 | 16.0 | 0.07 | 0.05 | 0.05 | 82 | 1007.2 |
| 20260509212313 | 58 | 246 | 12.0 | 18.0 | 0.28 | 0.05 | 0.05 | 86 | 1007.6 |
| 20260509211809 | 60 | 252 | 18.0 | 22.0 | 0.00 | 0.00 | 0.00 | 77 | 1007.6 |
| 20260509211305 | 60 | 263 | 17.0 | 21.0 | 0.00 | 0.00 | 0.00 | 74 | 1006.9 |
| 20260509210802 | 66 | 249 | 26.0 | 31.0 | 0.00 | 0.00 | 0.00 | 56 | 1006.7 |
| 20260509210300 | 69 | 228 | 16.0 | 22.0 | 0.00 | 0.00 | 0.00 | 59 | 1005.9 |
| 20260509205759 | 70 | 223 | 15.0 | 26.0 | 0.00 | 0.00 | 0.00 | 55 | 1005.8 |
| 20260509205254 | 70 | 197 | 14.0 | 24.0 | 0.00 | 0.00 | 0.00 | 55 | 1005.8 |
| 20260509204750 | 70 | 229 | 15.0 | 20.0 | 0.00 | 0.00 | 0.00 | 55 | 1005.4 |
| 20260509204247 | 70 | 243 | 21.0 | 24.0 | 0.00 | 0.00 | 0.00 | 54 | 1005.7 |
| 20260509203743 | 70 | 209 | 16.0 | 24.0 | 0.00 | 0.00 | 0.00 | 54 | 1005.7 |
| 20260509203241 | 70 | 212 | 17.0 | 20.0 | 0.00 | 0.00 | 0.00 | 54 | 1005.7 |
| 20260509202736 | 71 | 248 | 13.0 | 21.0 | 0.00 | 0.00 | 0.00 | 56 | 1005.6 |
| 20260509202233 | 71 | 239 | 18.0 | 24.0 | 0.00 | 0.00 | 0.00 | 56 | 1005.8 |
| 20260509201727 | 71 | 235 | 17.0 | 23.0 | 0.00 | 0.00 | 0.00 | 56 | 1005.9 |
| 20260509201224 | 72 | 244 | 16.0 | 23.0 | 0.00 | 0.00 | 0.00 | 55 | 1005.8 |
| 20260509200720 | 71 | 228 | 11.0 | 17.0 | 0.00 | 0.00 | 0.00 | 58 | 1006.2 |
| 20260509200215 | 71 | 227 | 18.0 | 23.0 | 0.00 | 0.00 | 0.00 | 57 | 1006.4 |
| 20260509195711 | 71 | 240 | 19.0 | 25.0 | 0.00 | 0.00 | 0.00 | 55 | 1006.3 |
| 20260509195207 | 70 | 239 | 12.0 | 20.0 | 0.00 | 0.00 | 0.00 | 59 | 1006.4 |
| 20260509194701 | 71 | 251 | 16.0 | 22.0 | 0.00 | 0.00 | 0.00 | 58 | 1006.4 |
| 20260509194158 | 69 | 225 | 21.0 | 25.0 | 0.00 | 0.00 | 0.00 | 60 | 1006.5 |
| 20260509193654 | 71 | 212 | 21.0 | 26.0 | 0.00 | 0.00 | 0.00 | 60 | 1006.7 |
| 20260509193149 | 70 | 236 | 12.0 | 18.0 | 0.00 | 0.00 | 0.00 | 61 | 1006.8 |
| 20260509192646 | 71 | 220 | 19.0 | 25.0 | 0.00 | 0.00 | 0.00 | 61 | 1006.7 |
| 20260509192141 | 70 | 229 | 20.0 | 25.0 | 0.00 | 0.00 | 0.00 | 62 | 1006.6 |
| 20260509191641 | 71 | 240 | 18.0 | 23.0 | 0.00 | 0.00 | 0.00 | 60 | 1006.6 |
| 20260509191138 | 70 | 227 | 20.0 | 24.0 | 0.00 | 0.00 | 0.00 | 61 | 1006.8 |
| 20260509190635 | 70 | 213 | 16.0 | 25.0 | 0.00 | 0.00 | 0.00 | 64 | 1006.8 |
| 20260509190132 | 71 | 198 | 16.0 | 21.0 | 0.00 | 0.00 | 0.00 | 62 | 1007.0 |
| 20260509185630 | 70 | 253 | 14.0 | 23.0 | 0.00 | 0.00 | 0.00 | 63 | 1006.9 |
| 20260509185125 | 70 | 229 | 15.0 | 22.0 | 0.00 | 0.00 | 0.00 | 61 | 1006.9 |
| 20260509184624 | 70 | 210 | 16.0 | 20.0 | 0.00 | 0.00 | 0.00 | 66 | 1007.0 |
| 20260509184120 | 70 | 200 | 11.0 | 18.0 | 0.00 | 0.00 | 0.00 | 65 | 1006.9 |
| 20260509183616 | 69 | 240 | 12.0 | 17.0 | 0.00 | 0.00 | 0.00 | 67 | 1007.1 |
| 20260509183112 | 68 | 221 | 13.0 | 23.0 | 0.00 | 0.00 | 0.00 | 66 | 1007.1 |
| 20260509182608 | 67 | 230 | 15.0 | 23.0 | 0.00 | 0.00 | 0.00 | 66 | 1007.4 |
| 20260509182105 | 67 | 219 | 18.0 | 22.0 | 0.00 | 0.00 | 0.00 | 68 | 1007.5 |
| 20260509181603 | 67 | 229 | 14.0 | 21.0 | 0.00 | 0.00 | 0.00 | 68 | 1007.4 |
| 20260509181100 | 68 | 211 | 15.0 | 20.0 | 0.00 | 0.00 | 0.00 | 68 | 1007.4 |
| 20260509180556 | 68 | 245 | 15.0 | 22.0 | 0.00 | 0.00 | 0.00 | 66 | 1007.3 |
| 20260509180054 | 68 | 226 | 17.0 | 20.0 | 0.00 | 0.00 | 0.00 | 69 | 1007.3 |
| 20260509175549 | 67 | 202 | 14.0 | 16.0 | 0.00 | 0.00 | 0.00 | 71 | 1007.5 |
| 20260509175047 | 66 | 245 | 11.0 | 21.0 | 0.00 | 0.00 | 0.00 | 72 | 1007.5 |
| 20260509174542 | 68 | 219 | 14.0 | 22.0 | 0.00 | 0.00 | 0.00 | 69 | 1007.3 |
| 20260509174038 | 67 | 224 | 16.0 | 21.0 | 0.00 | 0.00 | 0.00 | 68 | 1007.2 |
| 20260509173532 | 67 | 235 | 14.0 | 21.0 | 0.00 | 0.00 | 0.00 | 69 | 1007.3 |
| 20260509173029 | 66 | 256 | 14.0 | 18.0 | 0.00 | 0.00 | 0.00 | 69 | 1007.5 |
| 20260509172526 | 65 | 216 | 18.0 | 25.0 | 0.00 | 0.00 | 0.00 | 70 | 1007.5 |
| 20260509172021 | 66 | 216 | 10.0 | 21.0 | 0.00 | 0.00 | 0.00 | 73 | 1007.5 |
| 20260509171518 | 66 | 210 | 14.0 | 20.0 | 0.00 | 0.00 | 0.00 | 71 | 1007.4 |
| 20260509171015 | 66 | 231 | 15.0 | 22.0 | 0.00 | 0.00 | 0.00 | 69 | 1007.7 |
| 20260509170510 | 65 | 193 | 16.0 | 23.0 | 0.00 | 0.00 | 0.00 | 71 | 1007.5 |
| 20260509170006 | 65 | 221 | 17.0 | 22.0 | 0.00 | 0.00 | 0.00 | 71 | 1007.8 |
| 20260509165505 | 65 | 212 | 15.0 | 18.0 | 0.00 | 0.00 | 0.00 | 72 | 1007.7 |
| 20260509165001 | 65 | 209 | 14.0 | 20.0 | 0.00 | 0.00 | 0.00 | 73 | 1007.7 |
| 20260509164457 | 64 | 221 | 14.0 | 22.0 | 0.00 | 0.00 | 0.00 | 72 | 1007.5 |
| 20260509163953 | 64 | 207 | 13.0 | 18.0 | 0.00 | 0.00 | 0.00 | 73 | 1007.7 |
| 20260509163451 | 64 | 229 | 12.0 | 15.0 | 0.00 | 0.00 | 0.00 | 73 | 1007.9 |
| 20260509162949 | 64 | 198 | 12.0 | 17.0 | 0.00 | 0.00 | 0.00 | 73 | 1007.9 |
| 20260509162449 | 64 | 220 | 12.0 | 15.0 | 0.00 | 0.00 | 0.00 | 75 | 1007.8 |
| 20260509161944 | 64 | 223 | 13.0 | 18.0 | 0.00 | 0.00 | 0.00 | 75 | 1008.0 |
| 20260509161441 | 63 | 213 | 14.0 | 17.0 | 0.00 | 0.00 | 0.00 | 76 | 1007.8 |
| 20260509160936 | 63 | 213 | 14.0 | 17.0 | 0.00 | 0.00 | 0.00 | 76 | 1007.9 |
| 20260509160432 | 62 | 210 | 13.0 | 15.0 | 0.00 | 0.00 | 0.00 | 76 | 1007.9 |
| 20260509155927 | 62 | 211 | 12.0 | 15.0 | 0.00 | 0.00 | 0.00 | 78 | 1008.1 |
| 20260509155424 | 62 | 228 | 11.0 | 16.0 | 0.00 | 0.00 | 0.00 | 80 | 1008.1 |
| 20260509154920 | 62 | 235 | 11.0 | 13.0 | 0.00 | 0.00 | 0.00 | 78 | 1008.2 |
| 20260509154417 | 62 | 206 | 10.0 | 14.0 | 0.00 | 0.00 | 0.00 | 79 | 1008.1 |
| 20260509153914 | 61 | 199 | 10.0 | 13.0 | 0.00 | 0.00 | 0.00 | 81 | 1008.1 |
| 20260509153411 | 61 | 241 | 12.0 | 15.0 | 0.00 | 0.00 | 0.00 | 78 | 1007.9 |
| 20260509152908 | 61 | 223 | 12.0 | 14.0 | 0.00 | 0.00 | 0.00 | 80 | 1008.4 |
| 20260509152404 | 61 | 219 | 9.0 | 13.0 | 0.00 | 0.00 | 0.00 | 80 | 1008.5 |
| 20260509151901 | 60 | 237 | 9.0 | 14.0 | 0.00 | 0.00 | 0.00 | 81 | 1008.5 |
| 20260509151356 | 60 | 234 | 11.0 | 18.0 | 0.00 | 0.00 | 0.00 | 81 | 1008.6 |
| 20260509150855 | 60 | 236 | 9.0 | 14.0 | 0.00 | 0.00 | 0.00 | 82 | 1008.7 |
| 20260509150353 | 59 | 222 | 8.0 | 11.0 | 0.00 | 0.00 | 0.00 | 83 | 1008.5 |
| 20260509145850 | 59 | 212 | 15.0 | 17.0 | 0.00 | 0.00 | 0.00 | 82 | 1008.5 |
| 20260509145344 | 59 | 227 | 9.0 | 15.0 | 0.00 | 0.00 | 0.00 | 84 | 1008.5 |
| 20260509144841 | 59 | 214 | 13.0 | 16.0 | 0.00 | 0.00 | 0.00 | 83 | 1008.5 |
| 20260509144338 | 59 | 204 | 9.0 | 14.0 | 0.00 | 0.00 | 0.00 | 83 | 1008.7 |
| 20260509143835 | 59 | 255 | 11.0 | 13.0 | 0.00 | 0.00 | 0.00 | 82 | 1008.8 |
| 20260509143333 | 59 | 249 | 11.0 | 15.0 | 0.00 | 0.00 | 0.00 | 83 | 1009.1 |
| 20260509142829 | 58 | 238 | 10.0 | 13.0 | 0.00 | 0.00 | 0.00 | 84 | 1008.9 |
| 20260509142325 | 58 | 239 | 7.0 | 11.0 | 0.00 | 0.00 | 0.00 | 85 | 1009.0 |
| 20260509141821 | 58 | 212 | 9.0 | 14.0 | 0.00 | 0.00 | 0.00 | 84 | 1008.9 |
| 20260509141318 | 57 | 234 | 15.0 | 17.0 | 0.00 | 0.00 | 0.00 | 84 | 1009.0 |
| 20260509140814 | 57 | 227 | 8.0 | 14.0 | 0.00 | 0.00 | 0.00 | 85 | 1008.9 |
| 20260509140311 | 57 | 235 | 8.0 | 10.0 | 0.00 | 0.00 | 0.00 | 88 | 1008.9 |
| 20260509135809 | 57 | 232 | 10.0 | 13.0 | 0.00 | 0.00 | 0.00 | 87 | 1009.0 |
| 20260509135306 | 57 | 238 | 11.0 | 16.0 | 0.00 | 0.00 | 0.00 | 87 | 1009.1 |
| 20260509134804 | 57 | 236 | 9.0 | 13.0 | 0.00 | 0.00 | 0.00 | 89 | 1009.2 |
| 20260509134301 | 56 | 239 | 9.0 | 11.0 | 0.00 | 0.00 | 0.00 | 90 | 1009.1 |
| 20260509133758 | 55 | 236 | 11.0 | 14.0 | 0.00 | 0.00 | 0.00 | 91 | 1009.1 |
| 20260509133254 | 55 | 233 | 10.0 | 13.0 | 0.00 | 0.00 | 0.00 | 92 | 1009.1 |
| 20260509132753 | 55 | 240 | 9.0 | 11.0 | 0.00 | 0.00 | 0.00 | 93 | 1009.1 |
| 20260509132252 | 55 | 224 | 8.0 | 9.0 | 0.00 | 0.00 | 0.00 | 95 | 1008.9 |
| 20260509131748 | 54 | 221 | 8.0 | 9.0 | 0.00 | 0.00 | 0.00 | 95 | 1008.8 |
| 20260509131244 | 54 | 207 | 8.0 | 10.0 | 0.00 | 0.00 | 0.00 | 95 | 1009.0 |
| 20260509130741 | 54 | 235 | 7.0 | 8.0 | 0.00 | 0.00 | 0.00 | 95 | 1009.2 |
| 20260509130236 | 54 | 241 | 9.0 | 15.0 | 0.00 | 0.00 | 0.00 | 96 | 1008.9 |
| 20260509125733 | 54 | 252 | 9.0 | 10.0 | 0.00 | 0.00 | 0.00 | 96 | 1009.1 |
| 20260509125230 | 53 | 241 | 7.0 | 13.0 | 0.00 | 0.00 | 0.00 | 96 | 1009.2 |
| 20260509124726 | 53 | 237 | 10.0 | 11.0 | 0.00 | 0.00 | 0.00 | 97 | 1009.0 |
| 20260509124223 | 54 | 254 | 11.0 | 13.0 | 0.00 | 0.00 | 0.00 | 97 | 1009.0 |
| 20260509123722 | 54 | 239 | 8.0 | 10.0 | 0.00 | 0.00 | 0.00 | 98 | 1009.0 |
| 20260509123218 | 54 | 231 | 7.0 | 9.0 | 0.00 | 0.00 | 0.00 | 98 | 1009.0 |
| 20260509122714 | 54 | 240 | 7.0 | 10.0 | 0.00 | 0.00 | 0.00 | 98 | 1008.7 |
| 20260509122211 | 54 | 221 | 7.0 | 8.0 | 0.00 | 0.00 | 0.00 | 99 | 1009.0 |
| 20260509121707 | 53 | 216 | 9.0 | 10.0 | 0.00 | 0.00 | 0.00 | 99 | 1009.1 |
| 20260509121205 | 53 | 215 | 6.0 | 8.0 | 0.00 | 0.00 | 0.00 | 99 | 1009.0 |
| 20260509120703 | 53 | 230 | 6.0 | 8.0 | 0.00 | 0.00 | 0.00 | 99 | 1009.2 |
| 20260509120201 | 53 | 216 | 7.0 | 8.0 | 0.00 | 0.00 | 0.00 | 99 | 1009.3 |
| 20260509115658 | 52 | 210 | 5.0 | 8.0 | 0.00 | 0.00 | 0.00 | 99 | 1009.3 |
| 20260509115155 | 52 | 229 | 5.0 | 6.0 | 0.00 | 0.00 | 0.00 | 99 | 1009.2 |
| 20260509114654 | 51 | 216 | 4.0 | 6.0 | 0.00 | 0.00 | 0.00 | 99 | 1009.1 |
| 20260509114153 | 51 | 210 | 4.0 | 5.0 | 0.00 | 0.00 | 0.00 | 99 | 1009.0 |
| 20260509113650 | 50 | 216 | 2.0 | 3.0 | 0.00 | 0.00 | 0.00 | 99 | 1009.2 |
| 20260509113147 | 49 | 212 | 2.0 | 2.0 | 0.00 | 0.00 | 0.00 | 99 | 1008.9 |
| 20260509112644 | 50 | 215 | 2.0 | 3.0 | 0.00 | 0.00 | 0.00 | 99 | 1009.0 |
| 20260509112141 | 50 | 215 | 2.0 | 2.0 | 0.00 | 0.00 | 0.00 | 99 | 1009.0 |
| 20260509111638 | 50 | 208 | 2.0 | 3.0 | 0.00 | 0.00 | 0.00 | 99 | 1009.0 |
| 20260509111135 | 50 | 214 | 3.0 | 3.0 | 0.00 | 0.00 | 0.00 | 99 | 1009.0 |
| 20260509110632 | 50 | 212 | 3.0 | 3.0 | 0.00 | 0.00 | 0.00 | 99 | 1008.9 |
| 20260509110129 | 50 | 216 | 4.0 | 6.0 | 0.00 | 0.00 | 0.00 | 99 | 1009.0 |
| 20260509105627 | 50 | 214 | 4.0 | 5.0 | 0.00 | 0.00 | 0.00 | 99 | 1009.1 |
| 20260509105124 | 50 | 222 | 4.0 | 5.0 | 0.00 | 0.00 | 0.00 | 99 | 1009.0 |
| 20260509104621 | 49 | 232 | 3.0 | 5.0 | 0.00 | 0.00 | 0.00 | 99 | 1008.9 |
| 20260509104118 | 49 | 233 | 2.0 | 2.0 | 0.00 | 0.00 | 0.00 | 99 | 1008.8 |
| 20260509103616 | 50 | 228 | 3.0 | 3.0 | 0.00 | 0.00 | 0.00 | 99 | 1008.9 |
| 20260509103114 | 50 | 222 | 3.0 | 3.0 | 0.00 | 0.00 | 0.00 | 99 | 1008.9 |
| 20260509102611 | 50 | 222 | 2.0 | 2.0 | 0.00 | 0.00 | 0.00 | 99 | 1008.8 |
| 20260509102108 | 50 | 237 | 2.0 | 2.0 | 0.00 | 0.00 | 0.00 | 99 | 1008.8 |
| 20260509101604 | 49 | 225 | 1.0 | 2.0 | 0.00 | 0.00 | 0.00 | 99 | 1008.7 |
| 20260509101101 | 50 | 216 | 2.0 | 2.0 | 0.00 | 0.00 | 0.00 | 99 | 1008.8 |
| 20260509100558 | 50 | 218 | 3.0 | 3.0 | 0.00 | 0.00 | 0.00 | 99 | 1008.5 |
| 20260509100055 | 50 | 221 | 2.0 | 2.0 | 0.00 | 0.00 | 0.00 | 99 | 1008.5 |
| 20260509095551 | 50 | 215 | 3.0 | 3.0 | 0.00 | 0.00 | 0.00 | 99 | 1008.7 |
| 20260509095049 | 50 | 215 | 3.0 | 3.0 | 0.00 | 0.00 | 0.00 | 99 | 1008.8 |
| 20260509094545 | 50 | 227 | 1.0 | 2.0 | 0.00 | 0.00 | 0.00 | 99 | 1008.8 |
| 20260509094043 | 50 | 224 | 1.0 | 2.0 | 0.00 | 0.00 | 0.00 | 99 | 1008.8 |
| 20260509093541 | 50 | 215 | 2.0 | 2.0 | 0.00 | 0.00 | 0.00 | 99 | 1008.7 |
| 20260509093038 | 50 | 216 | 3.0 | 3.0 | 0.00 | 0.00 | 0.00 | 99 | 1008.9 |
| 20260509092536 | 50 | 215 | 3.0 | 3.0 | 0.00 | 0.00 | 0.00 | 99 | 1008.9 |
| 20260509092035 | 50 | 214 | 3.0 | 3.0 | 0.00 | 0.00 | 0.00 | 99 | 1009.0 |
| 20260509091531 | 51 | 217 | 3.0 | 3.0 | 0.00 | 0.00 | 0.00 | 99 | 1008.8 |
| 20260509091028 | 51 | 223 | 2.0 | 2.0 | 0.00 | 0.00 | 0.00 | 99 | 1008.8 |
| 20260509090525 | 51 | 227 | 3.0 | 3.0 | 0.00 | 0.00 | 0.00 | 99 | 1009.0 |
| 20260509090023 | 51 | 220 | 4.0 | 6.0 | 0.00 | 0.00 | 0.00 | 99 | 1009.1 |
| 20260509085520 | 51 | 212 | 3.0 | 3.0 | 0.00 | 0.00 | 0.00 | 99 | 1009.2 |
| 20260509085016 | 50 | 200 | 3.0 | 5.0 | 0.00 | 0.00 | 0.00 | 99 | 1009.0 |
| 20260509084513 | 51 | 216 | 4.0 | 6.0 | 0.00 | 0.00 | 0.00 | 99 | 1009.1 |
| 20260509084010 | 50 | 214 | 3.0 | 3.0 | 0.00 | 0.00 | 0.00 | 99 | 1009.2 |
| 20260509083508 | 50 | 219 | 3.0 | 5.0 | 0.00 | 0.00 | 0.00 | 99 | 1009.4 |
| 20260509083004 | 50 | 218 | 3.0 | 3.0 | 0.00 | 0.00 | 0.00 | 99 | 1009.2 |
| 20260509082502 | 50 | 217 | 2.0 | 3.0 | 0.00 | 0.00 | 0.00 | 99 | 1009.3 |
| 20260509081958 | 50 | 220 | 3.0 | 3.0 | 0.00 | 0.00 | 0.00 | 99 | 1009.4 |
| 20260509081455 | 50 | 219 | 2.0 | 2.0 | 0.00 | 0.00 | 0.00 | 99 | 1009.6 |
| 20260509080952 | 50 | 218 | 2.0 | 3.0 | 0.00 | 0.00 | 0.00 | 99 | 1009.5 |
| 20260509080451 | 50 | 213 | 2.0 | 2.0 | 0.00 | 0.00 | 0.00 | 99 | 1009.5 |
| 20260509075948 | 50 | 218 | 2.0 | 2.0 | 0.00 | 0.00 | 0.00 | 99 | 1009.6 |
| 20260509075445 | 50 | 216 | 2.0 | 2.0 | 0.00 | 0.00 | 0.00 | 99 | 1009.4 |
| 20260509074943 | 50 | 216 | 2.0 | 2.0 | 0.00 | 0.00 | 0.00 | 99 | 1009.5 |
| 20260509074440 | 50 | 212 | 2.0 | 3.0 | 0.00 | 0.00 | 0.00 | 99 | 1009.6 |
| 20260509073936 | 50 | 216 | 2.0 | 2.0 | 0.00 | 0.00 | 0.00 | 99 | 1009.8 |
| 20260509073433 | 50 | 227 | 2.0 | 2.0 | 0.00 | 0.00 | 0.00 | 99 | 1009.8 |
| 20260509072929 | 50 | 216 | 1.0 | 2.0 | 0.00 | 0.00 | 0.00 | 99 | 1010.0 |
| 20260509072426 | 50 | 216 | 3.0 | 3.0 | 0.00 | 0.00 | 0.00 | 99 | 1009.7 |
| 20260509071923 | 50 | 222 | 2.0 | 2.0 | 0.00 | 0.00 | 0.00 | 99 | 1009.8 |
| 20260509071420 | 50 | 214 | 2.0 | 2.0 | 0.00 | 0.00 | 0.00 | 99 | 1009.8 |
| 20260509070918 | 50 | 213 | 2.0 | 3.0 | 0.00 | 0.00 | 0.00 | 99 | 1009.8 |
| 20260509070414 | 50 | 224 | 1.0 | 1.0 | 0.00 | 0.00 | 0.00 | 99 | 1009.8 |
| 20260509065909 | 50 | 227 | 2.0 | 2.0 | 0.00 | 0.00 | 0.00 | 99 | 1009.8 |
| 20260509065406 | 50 | 231 | 2.0 | 3.0 | 0.00 | 0.00 | 0.00 | 99 | 1009.7 |
| 20260509064902 | 50 | 217 | 3.0 | 3.0 | 0.00 | 0.00 | 0.00 | 98 | 1010.0 |
| 20260509064400 | 50 | 211 | 3.0 | 3.0 | 0.00 | 0.00 | 0.00 | 98 | 1009.8 |
| 20260509063857 | 50 | 215 | 3.0 | 3.0 | 0.00 | 0.00 | 0.00 | 98 | 1010.0 |
| 20260509063353 | 50 | 212 | 2.0 | 2.0 | 0.00 | 0.00 | 0.00 | 98 | 1010.0 |
| 20260509062850 | 50 | 210 | 2.0 | 2.0 | 0.00 | 0.00 | 0.00 | 98 | 1009.7 |
| 20260509062347 | 50 | 217 | 3.0 | 3.0 | 0.00 | 0.00 | 0.00 | 98 | 1010.0 |
| 20260509061844 | 50 | 214 | 2.0 | 2.0 | 0.00 | 0.00 | 0.00 | 98 | 1010.1 |
| 20260509061343 | 50 | 216 | 2.0 | 2.0 | 0.00 | 0.00 | 0.00 | 98 | 1010.1 |
| 20260509060839 | 50 | 212 | 2.0 | 2.0 | 0.00 | 0.00 | 0.00 | 98 | 1010.3 |
| 20260509060337 | 50 | 211 | 2.0 | 2.0 | 0.00 | 0.00 | 0.00 | 98 | 1010.3 |
| 20260509055831 | 50 | 215 | 2.0 | 2.0 | 0.00 | 0.00 | 0.00 | 98 | 1010.3 |
| 20260509055327 | 50 | 212 | 2.0 | 2.0 | 0.00 | 0.00 | 0.00 | 98 | 1010.4 |
| 20260509054825 | 51 | 212 | 2.0 | 3.0 | 0.00 | 0.00 | 0.00 | 98 | 1010.5 |
| 20260509054321 | 51 | 210 | 2.0 | 2.0 | 0.00 | 0.00 | 0.00 | 98 | 1010.4 |
| 20260509053820 | 51 | 210 | 2.0 | 2.0 | 0.00 | 0.00 | 0.00 | 97 | 1010.6 |
| 20260509053316 | 51 | 211 | 2.0 | 2.0 | 0.00 | 0.00 | 0.00 | 97 | 1010.6 |
| 20260509052814 | 51 | 215 | 2.0 | 3.0 | 0.00 | 0.00 | 0.00 | 97 | 1010.7 |
| 20260509052312 | 52 | 209 | 3.0 | 5.0 | 0.00 | 0.00 | 0.00 | 97 | 1010.7 |
| 20260509051809 | 52 | 214 | 3.0 | 5.0 | 0.00 | 0.00 | 0.00 | 97 | 1010.8 |
| 20260509051307 | 51 | 223 | 3.0 | 3.0 | 0.00 | 0.00 | 0.00 | 97 | 1011.0 |
| 20260509050804 | 51 | 216 | 3.0 | 3.0 | 0.00 | 0.00 | 0.00 | 97 | 1011.1 |
| 20260509050300 | 51 | 209 | 3.0 | 3.0 | 0.00 | 0.00 | 0.00 | 97 | 1010.8 |
| 20260509045757 | 51 | 213 | 2.0 | 3.0 | 0.00 | 0.00 | 0.00 | 97 | 1010.8 |
| 20260509045254 | 51 | 219 | 3.0 | 3.0 | 0.00 | 0.00 | 0.00 | 97 | 1010.8 |
| 20260509044752 | 51 | 210 | 2.0 | 2.0 | 0.00 | 0.00 | 0.00 | 96 | 1010.7 |
| 20260509044249 | 51 | 213 | 3.0 | 3.0 | 0.00 | 0.00 | 0.00 | 96 | 1010.7 |
| 20260509043745 | 52 | 213 | 3.0 | 5.0 | 0.00 | 0.00 | 0.00 | 96 | 1010.8 |
| 20260509043241 | 52 | 209 | 4.0 | 5.0 | 0.00 | 0.00 | 0.00 | 96 | 1010.7 |
| 20260509042737 | 52 | 212 | 4.0 | 6.0 | 0.00 | 0.00 | 0.00 | 96 | 1010.8 |
| 20260509042234 | 52 | 222 | 3.0 | 6.0 | 0.00 | 0.00 | 0.00 | 96 | 1010.6 |
| 20260509041731 | 52 | 218 | 5.0 | 6.0 | 0.00 | 0.00 | 0.00 | 96 | 1010.9 |
| 20260509041228 | 53 | 209 | 3.0 | 6.0 | 0.00 | 0.00 | 0.00 | 96 | 1010.9 |
| 20260509040726 | 53 | 209 | 3.0 | 5.0 | 0.00 | 0.00 | 0.00 | 96 | 1011.1 |
| 20260509040223 | 53 | 210 | 4.0 | 6.0 | 0.00 | 0.00 | 0.00 | 96 | 1011.0 |
| 20260509035719 | 53 | 214 | 4.0 | 5.0 | 0.00 | 0.00 | 0.00 | 96 | 1011.0 |
| 20260509035216 | 53 | 215 | 3.0 | 5.0 | 0.00 | 0.00 | 0.00 | 95 | 1010.9 |
| 20260509034713 | 53 | 212 | 3.0 | 3.0 | 0.00 | 0.00 | 0.00 | 95 | 1011.0 |
| 20260509034211 | 53 | 214 | 3.0 | 3.0 | 0.00 | 0.00 | 0.00 | 95 | 1011.2 |
| 20260509033708 | 53 | 210 | 4.0 | 5.0 | 0.00 | 0.00 | 0.00 | 94 | 1011.2 |
| 20260509033205 | 53 | 213 | 4.0 | 6.0 | 0.00 | 0.00 | 0.00 | 94 | 1011.0 |
| 20260509032702 | 53 | 220 | 3.0 | 3.0 | 0.00 | 0.00 | 0.00 | 94 | 1011.2 |
| 20260509032159 | 53 | 218 | 3.0 | 5.0 | 0.00 | 0.00 | 0.00 | 94 | 1011.3 |
| 20260509031656 | 53 | 205 | 4.0 | 5.0 | 0.00 | 0.00 | 0.00 | 94 | 1011.4 |
| 20260509031154 | 53 | 213 | 6.0 | 7.0 | 0.00 | 0.00 | 0.00 | 93 | 1011.5 |
| 20260509030652 | 53 | 203 | 6.0 | 7.0 | 0.00 | 0.00 | 0.00 | 94 | 1011.5 |
| 20260509030149 | 53 | 217 | 5.0 | 6.0 | 0.00 | 0.00 | 0.00 | 94 | 1011.4 |
| 20260509025645 | 53 | 207 | 5.0 | 6.0 | 0.00 | 0.00 | 0.00 | 94 | 1011.5 |
| 20260509025141 | 53 | 215 | 4.0 | 5.0 | 0.00 | 0.00 | 0.00 | 94 | 1011.5 |
| 20260509024636 | 53 | 208 | 3.0 | 6.0 | 0.00 | 0.00 | 0.00 | 94 | 1011.6 |
| 20260509024132 | 53 | 220 | 5.0 | 7.0 | 0.00 | 0.00 | 0.00 | 94 | 1011.5 |
| 20260509023631 | 53 | 230 | 4.0 | 6.0 | 0.00 | 0.00 | 0.00 | 94 | 1011.6 |
| 20260509023127 | 53 | 228 | 5.0 | 6.0 | 0.00 | 0.00 | 0.00 | 94 | 1011.6 |
| 20260509022623 | 53 | 218 | 4.0 | 6.0 | 0.00 | 0.00 | 0.00 | 94 | 1011.6 |
| 20260509022122 | 53 | 215 | 4.0 | 6.0 | 0.00 | 0.00 | 0.00 | 94 | 1011.8 |
| 20260509021618 | 53 | 219 | 4.0 | 5.0 | 0.00 | 0.00 | 0.00 | 94 | 1011.4 |
| 20260509021115 | 53 | 216 | 4.0 | 6.0 | 0.00 | 0.00 | 0.00 | 94 | 1011.5 |
| 20260509020614 | 53 | 213 | 4.0 | 5.0 | 0.00 | 0.00 | 0.00 | 94 | 1011.3 |
| 20260509020110 | 53 | 211 | 5.0 | 6.0 | 0.00 | 0.00 | 0.00 | 94 | 1011.3 |
| 20260509015609 | 53 | 210 | 4.0 | 5.0 | 0.00 | 0.00 | 0.00 | 94 | 1011.5 |
| 20260509015106 | 53 | 220 | 3.0 | 5.0 | 0.00 | 0.00 | 0.00 | 93 | 1011.5 |
| 20260509014602 | 53 | 217 | 3.0 | 5.0 | 0.00 | 0.00 | 0.00 | 93 | 1011.4 |
| 20260509014059 | 53 | 217 | 4.0 | 6.0 | 0.00 | 0.00 | 0.00 | 93 | 1011.4 |
| 20260509013556 | 53 | 219 | 4.0 | 5.0 | 0.00 | 0.00 | 0.00 | 93 | 1011.3 |
| 20260509013051 | 53 | 222 | 4.0 | 6.0 | 0.00 | 0.00 | 0.00 | 92 | 1011.2 |
| 20260509012548 | 53 | 221 | 4.0 | 5.0 | 0.00 | 0.00 | 0.00 | 92 | 1011.2 |
| 20260509012045 | 53 | 218 | 5.0 | 6.0 | 0.00 | 0.00 | 0.00 | 92 | 1011.3 |
| 20260509011543 | 53 | 229 | 4.0 | 6.0 | 0.00 | 0.00 | 0.00 | 91 | 1011.1 |
| 20260509011040 | 53 | 215 | 5.0 | 7.0 | 0.00 | 0.00 | 0.00 | 92 | 1011.3 |
| 20260509010538 | 53 | 208 | 5.0 | 7.0 | 0.00 | 0.00 | 0.00 | 91 | 1011.0 |
| 20260509010034 | 54 | 216 | 5.0 | 7.0 | 0.00 | 0.00 | 0.00 | 90 | 1011.3 |
| 20260509005532 | 54 | 204 | 3.0 | 5.0 | 0.00 | 0.00 | 0.00 | 91 | 1011.3 |
| 20260509005027 | 54 | 225 | 4.0 | 6.0 | 0.00 | 0.00 | 0.00 | 90 | 1011.2 |
| 20260509004524 | 54 | 215 | 5.0 | 7.0 | 0.00 | 0.00 | 0.00 | 90 | 1011.1 |
| 20260509004021 | 54 | 207 | 5.0 | 10.0 | 0.00 | 0.00 | 0.00 | 90 | 1011.0 |
| 20260509003519 | 55 | 224 | 7.0 | 9.0 | 0.00 | 0.00 | 0.00 | 90 | 1011.3 |
| 20260509003016 | 55 | 212 | 7.0 | 8.0 | 0.00 | 0.00 | 0.00 | 90 | 1011.2 |
| 20260509002513 | 55 | 254 | 9.0 | 11.0 | 0.00 | 0.00 | 0.00 | 89 | 1011.3 |
| 20260509002011 | 55 | 223 | 7.0 | 9.0 | 0.00 | 0.00 | 0.00 | 89 | 1011.1 |
| 20260509001508 | 55 | 199 | 7.0 | 14.0 | 0.00 | 0.00 | 0.00 | 89 | 1011.2 |
| 20260509001004 | 55 | 210 | 9.0 | 16.0 | 0.00 | 0.00 | 0.00 | 87 | 1011.1 |
| 20260509000503 | 56 | 224 | 10.0 | 13.0 | 0.00 | 0.00 | 0.00 | 87 | 1011.3 |
| 20260508235957 | 56 | 201 | 12.0 | 14.0 | 0.00 | 0.00 | 0.00 | 88 | 1011.1 |
| 20260508235456 | 56 | 213 | 11.0 | 13.0 | 0.00 | 0.00 | 0.00 | 87 | 1010.9 |
| 20260508234952 | 56 | 200 | 9.0 | 11.0 | 0.00 | 0.00 | 0.00 | 87 | 1011.0 |
| 20260508234449 | 56 | 248 | 9.0 | 15.0 | 0.00 | 0.00 | 0.00 | 88 | 1011.0 |
| 20260508233947 | 56 | 215 | 7.0 | 8.0 | 0.00 | 0.00 | 0.00 | 88 | 1011.0 |
| 20260508233446 | 56 | 202 | 7.0 | 11.0 | 0.00 | 0.00 | 0.00 | 87 | 1010.9 |
| 20260508232942 | 57 | 238 | 8.0 | 11.0 | 0.00 | 0.00 | 0.00 | 87 | 1011.0 |
| 20260508232439 | 56 | 230 | 9.0 | 9.0 | 0.00 | 0.00 | 0.00 | 86 | 1011.1 |
| 20260508231936 | 56 | 214 | 5.0 | 8.0 | 0.00 | 0.00 | 0.00 | 86 | 1011.1 |
| 20260508231434 | 56 | 209 | 4.0 | 8.0 | 0.00 | 0.00 | 0.00 | 85 | 1011.2 |
| 20260508230931 | 55 | 216 | 5.0 | 7.0 | 0.00 | 0.00 | 0.00 | 85 | 1011.3 |
| 20260508230427 | 55 | 212 | 4.0 | 6.0 | 0.00 | 0.00 | 0.00 | 86 | 1011.3 |
| 20260508225924 | 55 | 201 | 4.0 | 7.0 | 0.00 | 0.00 | 0.00 | 85 | 1011.5 |
| 20260508225421 | 55 | 208 | 3.0 | 6.0 | 0.00 | 0.00 | 0.00 | 86 | 1011.4 |
| 20260508224918 | 55 | 198 | 5.0 | 7.0 | 0.00 | 0.00 | 0.00 | 86 | 1011.6 |
| 20260508224416 | 55 | 213 | 6.0 | 8.0 | 0.00 | 0.00 | 0.00 | 86 | 1011.6 |
| 20260508223913 | 55 | 211 | 5.0 | 6.0 | 0.00 | 0.00 | 0.00 | 87 | 1011.5 |
| 20260508223411 | 55 | 209 | 5.0 | 9.0 | 0.00 | 0.00 | 0.00 | 86 | 1011.4 |
| 20260508222908 | 55 | 200 | 5.0 | 7.0 | 0.00 | 0.00 | 0.00 | 87 | 1011.5 |